createdAt,value
2022-08-28T00:00:31.453Z,21.84
2022-08-28T00:03:08.372Z,21.81
2022-08-28T00:05:39.856Z,21.79
2022-08-28T00:08:10.149Z,21.77
2022-08-28T00:10:40.199Z,21.77
2022-08-28T00:13:13.842Z,21.77
2022-08-28T00:15:41.938Z,21.76
2022-08-28T00:18:09.917Z,21.79
2022-08-28T00:20:38.905Z,21.79
2022-08-28T00:23:07.209Z,21.75
2022-08-28T00:25:35.916Z,21.73
2022-08-28T00:28:08.770Z,21.71
2022-08-28T00:30:43.758Z,21.73
2022-08-28T00:33:16.507Z,21.72
2022-08-28T00:35:44.643Z,21.63
2022-08-28T00:38:13.437Z,21.58
2022-08-28T00:40:44.759Z,21.57
2022-08-28T00:43:27.039Z,21.54
2022-08-28T00:45:54.835Z,21.50
2022-08-28T00:48:22.601Z,21.46
2022-08-28T00:51:09.472Z,21.40
2022-08-28T00:53:37.711Z,21.34
2022-08-28T00:56:12.298Z,21.29
2022-08-28T00:58:45.174Z,21.27
2022-08-28T01:01:14.922Z,21.23
2022-08-28T01:03:43.328Z,21.16
2022-08-28T01:06:14.879Z,21.14
2022-08-28T01:08:50.684Z,21.14
2022-08-28T01:11:20.451Z,21.10
2022-08-28T01:13:49.237Z,21.09
2022-08-28T01:16:19.544Z,21.08
2022-08-28T01:18:49.369Z,21.04
2022-08-28T01:21:37.605Z,21.01
2022-08-28T01:24:10.402Z,20.98
2022-08-28T01:26:38.579Z,20.94
2022-08-28T01:29:08.697Z,20.92
2022-08-28T01:31:38.133Z,20.90
2022-08-28T01:34:07.445Z,20.89
2022-08-28T01:36:35.591Z,20.88
2022-08-28T01:39:12.778Z,20.85
2022-08-28T01:41:42.736Z,20.85
2022-08-28T01:44:10.606Z,20.85
2022-08-28T01:46:41.962Z,20.84
2022-08-28T01:49:12.048Z,20.81
2022-08-28T01:51:41.440Z,20.83
2022-08-28T01:54:10.845Z,20.84
2022-08-28T01:56:42.406Z,20.83
2022-08-28T01:59:12.977Z,20.81
2022-08-28T02:01:42.690Z,20.79
2022-08-28T02:04:11.951Z,20.79
2022-08-28T02:06:41.340Z,20.80
2022-08-28T02:09:13.517Z,20.78
2022-08-28T02:11:46.587Z,20.74
2022-08-28T02:14:15.990Z,20.73
2022-08-28T02:16:44.140Z,20.70
2022-08-28T02:19:12.341Z,20.68
2022-08-28T02:21:40.861Z,20.65
2022-08-28T02:24:09.152Z,20.64
2022-08-28T02:26:38.373Z,20.62
2022-08-28T02:29:06.766Z,20.61
2022-08-28T02:31:34.592Z,20.60
2022-08-28T02:34:02.396Z,20.57
2022-08-28T02:36:30.913Z,20.54
2022-08-28T02:38:59.789Z,20.51
2022-08-28T02:41:27.929Z,20.49
2022-08-28T02:43:55.696Z,20.48
2022-08-28T02:46:23.562Z,20.47
2022-08-28T02:48:51.429Z,20.45
2022-08-28T02:51:20.218Z,20.40
2022-08-28T02:53:48.126Z,20.38
2022-08-28T02:56:16.778Z,20.35
2022-08-28T02:58:44.804Z,20.29
2022-08-28T03:01:15.070Z,20.25
2022-08-28T03:03:43.477Z,20.19
2022-08-28T03:06:12.756Z,20.20
2022-08-28T03:08:44.840Z,20.21
2022-08-28T03:11:13.102Z,20.18
2022-08-28T03:13:42.531Z,20.18
2022-08-28T03:16:10.570Z,20.15
2022-08-28T03:18:38.987Z,20.15
2022-08-28T03:21:07.231Z,20.15
2022-08-28T03:23:35.945Z,20.07
2022-08-28T03:26:07.631Z,19.98
2022-08-28T03:28:39.773Z,19.93
2022-08-28T03:31:09.458Z,19.90
2022-08-28T03:33:38.250Z,19.87
2022-08-28T03:36:13.020Z,19.80
2022-08-28T03:38:42.054Z,19.77
2022-08-28T03:41:11.893Z,19.75
2022-08-28T03:43:40.213Z,19.69
2022-08-28T03:46:12.114Z,19.66
2022-08-28T03:48:42.194Z,19.67
2022-08-28T03:51:16.489Z,19.67
2022-08-28T03:53:46.258Z,19.65
2022-08-28T03:56:19.259Z,19.63
2022-08-28T03:58:47.921Z,19.60
2022-08-28T04:01:15.812Z,19.55
2022-08-28T04:03:44.494Z,19.52
2022-08-28T04:06:13.097Z,19.49
2022-08-28T04:08:40.981Z,19.45
2022-08-28T04:11:10.115Z,19.41
2022-08-28T04:13:42.137Z,19.36
2022-08-28T04:16:13.038Z,19.32
2022-08-28T04:18:43.152Z,19.35
2022-08-28T04:21:15.009Z,19.41
2022-08-28T04:23:45.128Z,19.47
2022-08-28T04:26:16.683Z,19.48
2022-08-28T04:28:45.937Z,19.48
2022-08-28T04:31:15.054Z,19.44
2022-08-28T04:33:43.306Z,19.37
2022-08-28T04:36:17.373Z,19.34
2022-08-28T04:38:45.703Z,19.33
2022-08-28T04:41:15.651Z,19.30
2022-08-28T04:43:44.627Z,19.32
2022-08-28T04:46:14.936Z,19.40
2022-08-28T04:48:43.435Z,19.45
2022-08-28T04:51:14.229Z,19.45
2022-08-28T04:53:42.927Z,19.49
2022-08-28T04:56:13.882Z,19.52
2022-08-28T04:58:43.521Z,19.60
2022-08-28T05:01:21.180Z,19.64
2022-08-28T05:03:54.959Z,19.71
2022-08-28T05:06:26.764Z,19.73
2022-08-28T05:09:00.812Z,19.77
2022-08-28T05:11:34.373Z,19.79
2022-08-28T05:14:05.054Z,19.82
2022-08-28T05:16:39.754Z,19.82
2022-08-28T05:19:07.746Z,19.93
2022-08-28T05:21:35.528Z,20.01
2022-08-28T05:24:04.796Z,20.04
2022-08-28T05:26:33.950Z,20.06
2022-08-28T05:29:04.413Z,20.07
2022-08-28T05:31:34.395Z,20.09
2022-08-28T05:34:03.494Z,20.13
2022-08-28T05:36:36.551Z,20.17
2022-08-28T05:39:07.538Z,20.21
2022-08-28T05:41:36.852Z,20.22
2022-08-28T05:44:08.123Z,20.27
2022-08-28T05:46:37.894Z,20.35
2022-08-28T05:49:10.092Z,20.39
2022-08-28T05:51:41.063Z,20.41
2022-08-28T05:54:09.797Z,20.46
2022-08-28T05:56:40.532Z,20.54
2022-08-28T05:59:10.275Z,20.62
2022-08-28T06:01:41.764Z,20.71
2022-08-28T06:04:15.947Z,20.80
2022-08-28T06:06:44.807Z,20.88
2022-08-28T06:09:16.072Z,20.96
2022-08-28T06:11:46.099Z,21.07
2022-08-28T06:14:18.068Z,21.17
2022-08-28T06:16:53.093Z,21.19
2022-08-28T06:19:23.198Z,21.22
2022-08-28T06:21:55.424Z,21.21
2022-08-28T06:24:24.579Z,21.28
2022-08-28T06:26:52.749Z,21.35
2022-08-28T06:29:24.345Z,21.41
2022-08-28T06:31:56.010Z,21.54
2022-08-28T06:34:24.545Z,21.67
2022-08-28T06:36:54.173Z,21.79
2022-08-28T06:39:23.321Z,21.89
2022-08-28T06:41:51.177Z,21.98
2022-08-28T06:44:20.885Z,22.10
2022-08-28T06:46:51.676Z,22.16
2022-08-28T06:49:20.162Z,22.24
2022-08-28T06:51:48.049Z,22.33
2022-08-28T06:54:22.208Z,22.44
2022-08-28T06:56:52.434Z,22.56
2022-08-28T06:59:20.574Z,22.65
2022-08-28T07:01:49.013Z,22.75
2022-08-28T07:04:17.069Z,22.83
2022-08-28T07:06:47.058Z,22.94
2022-08-28T07:09:16.282Z,23.05
2022-08-28T07:11:49.034Z,23.16
2022-08-28T07:14:17.287Z,23.25
2022-08-28T07:16:45.136Z,23.37
2022-08-28T07:19:13.833Z,23.45
2022-08-28T07:21:44.650Z,23.52
2022-08-28T07:28:18.175Z,23.76
2022-08-28T07:30:46.261Z,23.86
2022-08-28T07:33:14.459Z,23.98
2022-08-28T07:35:45.225Z,24.11
2022-08-28T07:38:13.071Z,24.23
2022-08-28T07:40:41.080Z,24.32
2022-08-28T07:43:27.556Z,24.43
2022-08-28T07:46:05.407Z,24.58
2022-08-28T07:48:35.438Z,24.73
2022-08-28T07:51:05.160Z,24.86
2022-08-28T07:53:36.496Z,24.99
2022-08-28T07:56:05.347Z,25.10
2022-08-28T07:58:33.742Z,25.22
2022-08-28T08:01:01.603Z,25.37
2022-08-28T08:03:31.560Z,25.51
2022-08-28T08:06:03.030Z,25.63
2022-08-28T08:08:32.123Z,25.75
2022-08-28T08:11:10.711Z,25.87
2022-08-28T08:13:39.588Z,25.99
2022-08-28T08:16:12.690Z,26.08
2022-08-28T08:18:42.554Z,26.20
2022-08-28T08:21:14.073Z,26.36
2022-08-28T08:23:42.231Z,26.51
2022-08-28T08:26:13.900Z,26.67
2022-08-28T08:28:42.571Z,26.80
2022-08-28T08:31:14.464Z,26.92
2022-08-28T08:33:44.882Z,27.05
2022-08-28T08:36:14.808Z,27.20
2022-08-28T08:38:42.767Z,27.39
2022-08-28T08:41:21.931Z,27.56
2022-08-28T08:43:57.312Z,27.71
2022-08-28T08:46:46.247Z,27.92
2022-08-28T08:49:19.237Z,28.12
2022-08-28T08:52:11.484Z,28.24
2022-08-28T08:54:45.110Z,28.36
2022-08-28T08:57:15.166Z,28.53
2022-08-28T08:59:43.010Z,28.78
2022-08-28T09:02:18.448Z,29.02
2022-08-28T09:05:04.338Z,29.27
2022-08-28T09:07:52.653Z,29.44
2022-08-28T09:10:21.184Z,29.71
2022-08-28T09:13:06.898Z,30.73
2022-08-28T09:15:40.160Z,32.31
2022-08-28T09:18:20.938Z,33.65
2022-08-28T09:20:55.576Z,34.81
2022-08-28T09:23:24.704Z,35.66
2022-08-28T09:26:01.817Z,35.77
2022-08-28T09:28:35.865Z,36.42
2022-08-28T09:31:08.934Z,37.42
2022-08-28T09:33:42.256Z,38.25
2022-08-28T09:36:33.631Z,39.09
2022-08-28T09:39:07.485Z,40.04
2022-08-28T09:42:00.933Z,40.67
2022-08-28T09:44:28.815Z,41.47
2022-08-28T09:46:56.664Z,41.68
2022-08-28T09:49:30.029Z,42.14
2022-08-28T09:52:02.136Z,42.50
2022-08-28T09:54:35.481Z,42.28
2022-08-28T09:57:04.042Z,42.73
2022-08-28T09:59:31.807Z,43.37
2022-08-28T10:02:31.657Z,43.71
2022-08-28T10:05:16.658Z,44.04
2022-08-28T10:07:58.123Z,44.50
2022-08-28T10:10:41.815Z,44.47
2022-08-28T10:13:17.632Z,44.30
2022-08-28T10:16:24.654Z,44.48
2022-08-28T10:19:02.694Z,44.40
2022-08-28T10:21:37.157Z,44.72
2022-08-28T10:24:07.655Z,45.01
2022-08-28T10:26:55.543Z,44.73
2022-08-28T10:29:30.076Z,44.96
2022-08-28T10:32:19.813Z,45.21
2022-08-28T10:34:50.469Z,45.38
2022-08-28T10:37:52.597Z,45.30
2022-08-28T10:40:32.850Z,44.91
2022-08-28T10:43:11.535Z,45.64
2022-08-28T10:45:40.306Z,45.72
2022-08-28T10:48:15.534Z,45.69
2022-08-28T10:50:55.225Z,46.26
2022-08-28T10:53:29.927Z,45.71
2022-08-28T10:56:07.547Z,44.49
2022-08-28T10:58:39.480Z,43.53
2022-08-28T11:01:11.993Z,42.34
2022-08-28T11:03:46.585Z,40.94
2022-08-28T11:06:21.229Z,39.46
2022-08-28T11:08:59.626Z,38.37
2022-08-28T11:11:45.080Z,37.69
2022-08-28T11:14:25.190Z,37.14
2022-08-28T11:16:56.405Z,36.67
2022-08-28T11:19:33.589Z,36.24
2022-08-28T11:22:11.004Z,35.74
2022-08-28T11:24:44.163Z,35.48
2022-08-28T11:27:27.489Z,35.18
2022-08-28T11:30:11.038Z,34.91
2022-08-28T11:32:56.983Z,34.60
2022-08-28T11:35:30.726Z,34.41
2022-08-28T11:37:58.636Z,34.20
2022-08-28T11:40:32.281Z,33.95
2022-08-28T11:43:16.165Z,33.77
2022-08-28T11:45:50.645Z,33.53
2022-08-28T11:48:33.738Z,33.41
2022-08-28T11:51:31.340Z,33.30
2022-08-28T11:54:32.275Z,33.21
2022-08-28T11:57:20.239Z,33.04
2022-08-28T12:00:17.536Z,32.88
2022-08-28T12:02:49.907Z,32.72
2022-08-28T12:05:17.823Z,32.51
2022-08-28T12:07:48.546Z,32.37
2022-08-28T12:10:28.153Z,32.29
2022-08-28T12:13:02.446Z,32.28
2022-08-28T12:15:30.320Z,32.28
2022-08-28T12:18:04.403Z,32.28
2022-08-28T12:20:41.036Z,32.29
2022-08-28T12:23:28.655Z,32.20
2022-08-28T12:26:05.746Z,32.15
2022-08-28T12:28:46.118Z,32.11
2022-08-28T12:31:48.849Z,31.98
2022-08-28T12:34:31.728Z,31.93
2022-08-28T12:37:02.755Z,31.77
2022-08-28T12:39:32.624Z,31.66
2022-08-28T12:42:03.550Z,31.59
2022-08-28T12:44:33.583Z,31.53
2022-08-28T12:47:01.461Z,31.40
2022-08-28T12:49:36.035Z,31.31
2022-08-28T12:52:22.870Z,31.28
2022-08-28T12:54:55.264Z,31.25
2022-08-28T12:57:25.491Z,31.24
2022-08-28T12:59:56.006Z,31.25
2022-08-28T13:02:36.116Z,31.18
2022-08-28T13:05:29.194Z,31.12
2022-08-28T13:08:00.096Z,31.06
2022-08-28T13:10:33.426Z,31.06
2022-08-28T13:13:06.567Z,31.07
2022-08-28T13:15:55.306Z,31.11
2022-08-28T13:19:08.690Z,31.09
2022-08-28T13:21:52.171Z,31.08
2022-08-28T13:24:27.533Z,31.04
2022-08-28T13:27:04.025Z,30.92
2022-08-28T13:29:32.432Z,30.93
2022-08-28T13:32:07.769Z,30.89
2022-08-28T13:34:37.870Z,30.88
2022-08-28T13:37:14.608Z,30.88
2022-08-28T13:39:48.015Z,30.84
2022-08-28T13:42:18.061Z,30.77
2022-08-28T13:44:56.174Z,30.74
2022-08-28T13:47:24.030Z,30.73
2022-08-28T13:49:51.871Z,30.73
2022-08-28T13:52:19.647Z,30.82
2022-08-28T13:54:47.845Z,30.88
2022-08-28T13:57:15.681Z,30.87
2022-08-28T13:59:43.634Z,30.99
2022-08-28T14:02:32.746Z,31.10
2022-08-28T14:05:00.746Z,31.18
2022-08-28T14:07:29.461Z,31.25
2022-08-28T14:09:57.514Z,31.31
2022-08-28T14:12:32.796Z,31.38
2022-08-28T14:15:02.453Z,31.43
2022-08-28T14:17:30.373Z,31.47
2022-08-28T14:20:00.381Z,31.52
2022-08-28T14:22:28.681Z,31.54
2022-08-28T14:24:56.921Z,31.53
2022-08-28T14:27:24.669Z,31.54
2022-08-28T14:29:53.631Z,31.49
2022-08-28T14:32:21.427Z,31.43
2022-08-28T14:34:50.805Z,31.39
2022-08-28T14:37:19.385Z,31.37
2022-08-28T14:39:48.072Z,31.34
2022-08-28T14:42:16.041Z,31.29
2022-08-28T14:44:43.869Z,31.27
2022-08-28T14:47:12.358Z,31.21
2022-08-28T14:49:40.823Z,31.15
2022-08-28T14:52:08.649Z,31.09
2022-08-28T14:54:37.344Z,31.04
2022-08-28T14:57:05.471Z,30.98
2022-08-28T14:59:34.105Z,30.96
2022-08-28T15:02:02.196Z,30.96
2022-08-28T15:04:37.819Z,30.93
2022-08-28T15:07:10.546Z,30.93
2022-08-28T15:09:41.187Z,30.91
2022-08-28T15:12:09.344Z,30.89
2022-08-28T15:14:37.661Z,30.87
2022-08-28T15:17:05.984Z,30.91
2022-08-28T15:19:34.427Z,30.92
2022-08-28T15:22:04.242Z,30.90
2022-08-28T15:24:34.439Z,30.89
2022-08-28T15:27:02.793Z,30.88
2022-08-28T15:29:30.618Z,30.86
2022-08-28T15:31:59.134Z,30.84
2022-08-28T15:34:28.641Z,30.80
2022-08-28T15:36:58.030Z,30.75
2022-08-28T15:39:46.661Z,30.69
2022-08-28T15:42:15.455Z,30.61
2022-08-28T15:44:44.164Z,30.54
2022-08-28T15:47:13.836Z,30.49
2022-08-28T15:49:47.511Z,30.46
2022-08-28T15:52:20.039Z,30.44
2022-08-28T15:54:49.826Z,30.44
2022-08-28T15:57:17.993Z,30.44
2022-08-28T15:59:49.923Z,30.47
2022-08-28T16:02:21.980Z,30.45
2022-08-28T16:04:50.755Z,30.43
2022-08-28T16:07:20.151Z,30.39
2022-08-28T16:09:49.030Z,30.32
2022-08-28T16:12:17.424Z,30.25
2022-08-28T16:14:45.368Z,30.18
2022-08-28T16:17:13.384Z,30.09
2022-08-28T16:19:43.114Z,30.02
2022-08-28T16:22:12.571Z,29.96
2022-08-28T16:24:40.333Z,29.87
2022-08-28T16:27:13.115Z,29.80
2022-08-28T16:29:46.653Z,29.74
2022-08-28T16:32:17.764Z,29.72
2022-08-28T16:34:45.837Z,29.66
2022-08-28T16:37:16.635Z,29.58
2022-08-28T16:39:48.875Z,29.50
2022-08-28T16:42:17.504Z,29.45
2022-08-28T16:44:45.843Z,29.43
2022-08-28T16:47:14.073Z,29.37
2022-08-28T16:49:41.895Z,29.33
2022-08-28T16:52:09.654Z,29.27
2022-08-28T16:54:37.691Z,29.20
2022-08-28T16:57:14.011Z,29.12
2022-08-28T16:59:41.773Z,29.05
2022-08-28T17:02:10.006Z,28.99
2022-08-28T17:04:41.524Z,28.94
2022-08-28T17:07:09.594Z,28.88
2022-08-28T17:09:37.436Z,28.84
2022-08-28T17:12:05.576Z,28.77
2022-08-28T17:14:34.324Z,28.72
2022-08-28T17:17:02.102Z,28.62
2022-08-28T17:19:30.378Z,28.56
2022-08-28T17:22:16.996Z,28.44
2022-08-28T17:24:44.753Z,28.21
2022-08-28T17:27:16.869Z,27.84
2022-08-28T17:29:50.731Z,27.57
2022-08-28T17:32:18.854Z,27.38
2022-08-28T17:34:46.954Z,27.16
2022-08-28T17:37:15.863Z,26.92
2022-08-28T17:39:43.737Z,26.68
2022-08-28T17:42:11.609Z,26.46
2022-08-28T17:44:39.557Z,26.31
2022-08-28T17:47:07.313Z,26.04
2022-08-28T17:49:35.345Z,25.78
2022-08-28T17:52:03.957Z,25.55
2022-08-28T17:54:32.295Z,25.40
2022-08-28T17:57:00.268Z,25.19
2022-08-28T17:59:28.072Z,24.95
2022-08-28T18:01:56.083Z,24.84
2022-08-28T18:04:24.819Z,24.72
2022-08-28T18:06:54.738Z,24.73
2022-08-28T18:09:25.008Z,24.73
2022-08-28T18:11:52.909Z,24.69
2022-08-28T18:14:21.628Z,24.64
2022-08-28T18:16:50.219Z,24.63
2022-08-28T18:19:18.217Z,24.56
2022-08-28T18:21:47.222Z,24.50
2022-08-28T18:24:15.119Z,24.42
2022-08-28T18:26:43.864Z,24.29
2022-08-28T18:29:13.729Z,24.12
2022-08-28T18:31:42.552Z,24.08
2022-08-28T18:34:11.001Z,24.05
2022-08-28T18:36:43.604Z,24.00
2022-08-28T18:39:11.576Z,23.95
2022-08-28T18:41:43.822Z,23.92
2022-08-28T18:44:14.402Z,23.83
2022-08-28T18:46:43.319Z,23.72
2022-08-28T18:49:12.126Z,23.65
2022-08-28T18:51:41.977Z,23.62
2022-08-28T18:54:13.880Z,23.62
2022-08-28T18:56:46.108Z,23.63
2022-08-28T18:59:16.190Z,23.62
2022-08-28T19:01:44.206Z,23.53
2022-08-28T19:04:12.152Z,23.42
2022-08-28T19:06:40.751Z,23.37
2022-08-28T19:09:08.766Z,23.37
2022-08-28T19:11:39.618Z,23.27
2022-08-28T19:14:07.758Z,23.17
2022-08-28T19:16:35.622Z,23.08
2022-08-28T19:19:03.900Z,23.01
2022-08-28T19:21:32.896Z,23.01
2022-08-28T19:24:00.929Z,22.97
2022-08-28T19:26:28.798Z,22.97
2022-08-28T19:28:57.491Z,22.97
2022-08-28T19:31:27.262Z,22.95
2022-08-28T19:33:56.178Z,22.94
2022-08-28T19:36:27.230Z,22.93
2022-08-28T19:38:55.178Z,22.91
2022-08-28T19:41:23.141Z,22.84
2022-08-28T19:43:51.382Z,22.77
2022-08-28T19:46:20.301Z,22.76
2022-08-28T19:48:50.394Z,22.74
2022-08-28T19:51:22.654Z,22.71
2022-08-28T19:53:57.793Z,22.74
2022-08-28T19:56:28.831Z,22.71
2022-08-28T19:58:59.419Z,22.70
2022-08-28T20:01:30.263Z,22.72
2022-08-28T20:03:59.846Z,22.75
2022-08-28T20:06:31.099Z,22.72
2022-08-28T20:09:02.664Z,22.73
2022-08-28T20:11:31.010Z,22.73
2022-08-28T20:14:04.416Z,22.78
2022-08-28T20:16:36.692Z,22.77
2022-08-28T20:19:07.836Z,22.75
2022-08-28T20:21:38.425Z,22.74
2022-08-28T20:24:11.034Z,22.76
2022-08-28T20:26:39.310Z,22.76
2022-08-28T20:29:08.680Z,22.69
2022-08-28T20:31:42.222Z,22.63
2022-08-28T20:34:11.722Z,22.53
2022-08-28T20:36:39.880Z,22.57
2022-08-28T20:39:09.521Z,22.62
2022-08-28T20:41:40.168Z,22.66
2022-08-28T20:44:10.282Z,22.67
2022-08-28T20:46:41.330Z,22.68
2022-08-28T20:49:14.455Z,22.68
2022-08-28T20:51:53.835Z,22.65
2022-08-28T20:54:34.664Z,22.61
2022-08-28T20:57:08.784Z,22.62
2022-08-28T20:59:39.983Z,22.65
2022-08-28T21:02:24.408Z,22.55
2022-08-28T21:04:53.428Z,22.50
2022-08-28T21:07:24.073Z,22.58
2022-08-28T21:10:04.848Z,22.63
2022-08-28T21:12:39.242Z,22.66
2022-08-28T21:15:10.935Z,22.67
2022-08-28T21:17:40.265Z,22.70
2022-08-28T21:20:12.206Z,22.70
2022-08-28T21:22:41.232Z,22.69
2022-08-28T21:25:10.757Z,22.68
2022-08-28T21:27:39.684Z,22.62
2022-08-28T21:30:09.682Z,22.52
2022-08-28T21:32:37.647Z,22.49
2022-08-28T21:35:07.463Z,22.51
2022-08-28T21:37:35.605Z,22.56
2022-08-28T21:40:06.599Z,22.56
2022-08-28T21:42:35.838Z,22.61
2022-08-28T21:45:09.835Z,22.61
2022-08-28T21:47:41.737Z,22.59
2022-08-28T21:50:10.893Z,22.54
2022-08-28T21:52:40.228Z,22.49
2022-08-28T21:55:12.273Z,22.45
2022-08-28T21:57:40.768Z,22.46
2022-08-28T22:00:21.550Z,22.48
2022-08-28T22:02:50.442Z,22.47
2022-08-28T22:05:18.606Z,22.43
2022-08-28T22:07:46.990Z,22.39
2022-08-28T22:10:15.134Z,22.36
2022-08-28T22:12:43.038Z,22.32
2022-08-28T22:15:11.042Z,22.28
2022-08-28T22:17:38.885Z,22.27
2022-08-28T22:20:07.394Z,22.24
2022-08-28T22:22:53.904Z,22.20
2022-08-28T22:25:21.858Z,22.13
2022-08-28T22:27:49.696Z,22.14
2022-08-28T22:30:17.827Z,22.15
2022-08-28T22:32:46.110Z,22.18
2022-08-28T22:35:14.138Z,22.20
2022-08-28T22:37:41.990Z,22.19
2022-08-28T22:40:13.521Z,22.19
2022-08-28T22:42:42.637Z,22.19
2022-08-28T22:45:10.933Z,22.21
2022-08-28T22:47:39.777Z,22.25
2022-08-28T22:50:08.518Z,22.29
2022-08-28T22:52:37.362Z,22.32
2022-08-28T22:55:09.257Z,22.32
2022-08-28T22:57:37.069Z,22.33
2022-08-28T23:00:15.582Z,22.31
2022-08-28T23:02:44.103Z,22.27
2022-08-28T23:05:12.020Z,22.22
2022-08-28T23:07:40.456Z,22.11
2022-08-28T23:10:09.491Z,21.98
2022-08-28T23:12:37.686Z,22.01
2022-08-28T23:15:10.310Z,22.06
2022-08-28T23:17:38.362Z,22.03
2022-08-28T23:20:11.381Z,21.93
2022-08-28T23:22:39.858Z,22.01
2022-08-28T23:25:08.677Z,22.10
2022-08-28T23:27:36.905Z,22.18
2022-08-28T23:30:07.406Z,22.22
2022-08-28T23:32:35.645Z,22.25
2022-08-28T23:35:07.263Z,22.25
2022-08-28T23:37:37.442Z,22.28
2022-08-28T23:40:14.033Z,22.36
2022-08-28T23:42:42.118Z,22.41
2022-08-28T23:45:11.802Z,22.42
2022-08-28T23:47:40.733Z,22.45
2022-08-28T23:50:12.448Z,22.50
2022-08-28T23:52:40.620Z,22.51
2022-08-28T23:55:09.538Z,22.49
2022-08-28T23:57:37.929Z,22.50
